Time;durP1;ratioP1;P1;durP2;ratioP2;P2;SDS_P1;SDS_P2;PMS_P1;PMS_P2;Temp;Humidity;BMP_temperature;BMP_pressure;BME280_temperature;BME280_humidity;BME280_pressure;Samples;Min_cycle;Max_cycle;Signal;HPM_P1;HPM_P2
2023/04/29 00:01:39;;;;;;;;;;;;;;;-142.75;100.00;77322.31;4989062;28;20392;-66
2023/04/29 00:04:08;;;;;;;;;;;;;;;-142.75;100.00;77308.53;4988734;28;19915;-66
2023/04/29 00:06:33;;;;;;;;;;;;;;;-142.75;100.00;77314.44;4989115;28;20648;-66
2023/04/29 00:08:58;;;;;;;;;;;;;;;-142.75;100.00;77306.56;4988967;28;19920;-67
2023/04/29 00:11:23;;;;;;;;;;;;;;;-142.75;100.00;77300.66;4989186;28;19910;-64
2023/04/29 00:13:49;;;;;;;;;;;;;;;-142.75;100.00;77302.63;4988317;28;19909;-64
2023/04/29 00:16:14;;;;;;;;;;;;;;;-142.75;100.00;77304.59;4988873;28;19922;-67
2023/04/29 00:18:39;;;;;;;;;;;;;;;-142.75;100.00;77310.50;4981826;28;20438;-67
2023/04/29 00:21:07;;;;;;;;;;;;;;;-142.75;100.00;77318.38;5001448;28;20430;-68
2023/04/29 00:23:33;;;;;;;;;;;;;;;-142.75;100.00;77322.31;5000304;28;19922;-68
2023/04/29 00:25:58;;;;;;;;;;;;;;;-142.75;100.00;77336.09;4987500;28;20000;-68
2023/04/29 00:28:24;;;;;;;;;;;;;;;-142.75;100.00;77326.25;4987843;28;20170;-68
2023/04/29 00:30:49;;;;;;;;;;;;;;;-142.75;100.00;77338.06;4988134;28;19922;-68
2023/04/29 00:33:14;;;;;;;;;;;;;;;-142.75;100.00;77349.88;4988507;28;19921;-68
2023/04/29 00:35:39;;;;;;;;;;;;;;;-142.75;100.00;77342.00;4994652;28;19952;-68
2023/04/29 00:38:04;;;;;;;;;;;;;;;-142.75;100.00;77357.75;4987040;28;19917;-68
2023/04/29 00:40:30;;;;;;;;;;;;;;;-142.75;100.00;77369.56;5000919;28;19953;-68
2023/04/29 00:42:56;;;;;;;;;;;;;;;-142.75;100.00;77353.81;4988555;28;19932;-68
2023/04/29 00:45:21;;;;;;;;;;;;;;;-142.75;100.00;77371.53;5001289;28;19917;-68
2023/04/29 00:47:47;;;;;;;;;;;;;;;-142.75;100.00;77385.31;4988732;28;19914;-67
2023/04/29 00:50:12;;;;;;;;;;;;;;;-142.75;100.00;77389.25;4988927;28;19910;-67
2023/04/29 00:52:38;;;;;;;;;;;;;;;-142.75;100.00;77391.22;4988150;28;19910;-67
2023/04/29 00:55:04;;;;;;;;;;;;;;;-142.75;100.00;77387.28;5001427;28;19995;-68
2023/04/29 00:57:29;;;;;;;;;;;;;;;-142.75;100.00;77385.31;5000395;28;19914;-68
2023/04/29 00:59:56;;;;;;;;;;;;;;;-142.75;100.00;77401.06;4988034;28;19926;-68
2023/04/29 01:02:22;;;;;;;;;;;;;;;-142.75;100.00;77387.28;5002470;28;20378;-68
2023/04/29 01:04:47;;;;;;;;;;;;;;;-142.75;100.00;77405.00;5001555;28;20000;-68
2023/04/29 01:07:25;;;;;;;;;;;;;;;-142.75;100.00;77406.97;4990534;28;21481;-68
2023/04/29 01:09:53;;;;;;;;;;;;;;;-142.75;100.00;77416.81;4989239;28;19956;-68
2023/04/29 01:12:31;;;;;;;;;;;;;;;-142.75;100.00;77416.81;5002136;28;19924;-67
2023/04/29 01:15:05;;;;;;;;;;;;;;;-142.75;100.00;77412.88;5001074;28;19933;-68
2023/04/29 01:17:36;;;;;;;;;;;;;;;-142.75;100.00;77418.78;4985423;28;19909;-68
2023/04/29 01:20:03;;;;;;;;;;;;;;;-142.75;100.00;77416.81;4989131;28;20290;-67
2023/04/29 01:22:28;;;;;;;;;;;;;;;-142.75;100.00;77430.59;4988091;28;19916;-68
2023/04/29 01:24:53;;;;;;;;;;;;;;;-142.75;100.00;77422.72;4987717;28;20180;-68
2023/04/29 01:27:37;;;;;;;;;;;;;;;-142.75;100.00;77420.75;5001335;28;19909;-68
2023/04/29 01:30:02;;;;;;;;;;;;;;;-142.75;100.00;77416.81;4995151;28;19917;-68
2023/04/29 01:32:47;;;;;;;;;;;;;;;-142.75;100.00;77424.69;5000846;28;19914;-68
2023/04/29 01:35:13;;;;;;;;;;;;;;;-142.75;100.00;77418.78;4978558;28;19935;-68
2023/04/29 01:37:51;;;;;;;;;;;;;;;-142.75;100.00;77410.91;5002094;28;20036;-68
2023/04/29 01:40:25;;;;;;;;;;;;;;;-142.75;100.00;77405.00;4983417;28;19917;-68
2023/04/29 01:43:00;;;;;;;;;;;;;;;-142.75;100.00;77416.81;4987707;28;19914;-68
2023/04/29 01:45:26;;;;;;;;;;;;;;;-142.75;100.00;77416.81;4993378;28;19914;-70
2023/04/29 01:47:52;;;;;;;;;;;;;;;-142.75;100.00;77426.66;5002718;28;19921;-68
2023/04/29 01:50:17;;;;;;;;;;;;;;;-142.75;100.00;77418.78;4988116;28;19921;-68
2023/04/29 01:52:42;;;;;;;;;;;;;;;-142.75;100.00;77410.91;4994460;28;19918;-67
2023/04/29 01:55:08;;;;;;;;;;;;;;;-142.75;100.00;77428.63;4982354;28;20196;-68
2023/04/29 01:57:33;;;;;;;;;;;;;;;-142.75;100.00;77428.63;4987540;28;19937;-68
2023/04/29 01:59:58;;;;;;;;;;;;;;;-142.75;100.00;77418.78;4986938;28;19917;-68
2023/04/29 02:02:24;;;;;;;;;;;;;;;-142.75;100.00;77416.81;4987468;28;19917;-68
2023/04/29 02:04:49;;;;;;;;;;;;;;;-142.75;100.00;77424.69;4984871;28;20337;-68
2023/04/29 02:07:15;;;;;;;;;;;;;;;-142.75;100.00;77432.56;4987081;28;20025;-68
2023/04/29 02:09:40;;;;;;;;;;;;;;;-142.75;100.00;77424.69;4986980;28;20366;-68
2023/04/29 02:12:06;;;;;;;;;;;;;;;-142.75;100.00;77428.63;4987310;28;19913;-66
2023/04/29 02:14:33;;;;;;;;;;;;;;;-142.75;100.00;77432.56;4986841;28;19916;-68
2023/04/29 02:16:58;;;;;;;;;;;;;;;-142.75;100.00;77420.75;4987219;28;19984;-68
2023/04/29 02:19:23;;;;;;;;;;;;;;;-142.75;100.00;77420.75;4988010;28;20012;-68
2023/04/29 02:21:48;;;;;;;;;;;;;;;-142.75;100.00;77416.81;4987054;28;19949;-68
2023/04/29 02:24:14;;;;;;;;;;;;;;;-142.75;100.00;77434.53;4986627;28;19910;-68
2023/04/29 02:26:39;;;;;;;;;;;;;;;-142.75;100.00;77424.69;4986834;28;20371;-68
2023/04/29 02:29:07;;;;;;;;;;;;;;;-142.75;100.00;77432.56;4987084;28;19960;-68
2023/04/29 02:31:32;;;;;;;;;;;;;;;-142.75;100.00;77450.28;4987108;28;19913;-67
2023/04/29 02:33:57;;;;;;;;;;;;;;;-142.75;100.00;77440.44;4986827;28;19952;-68
2023/04/29 02:36:23;;;;;;;;;;;;;;;-142.75;100.00;77444.38;4994220;28;19910;-68
2023/04/29 02:38:49;;;;;;;;;;;;;;;-142.75;100.00;77462.13;4983032;28;19910;-68
2023/04/29 02:41:17;;;;;;;;;;;;;;;-142.75;100.00;77462.13;4989704;28;19917;-67
2023/04/29 02:43:43;;;;;;;;;;;;;;;-142.75;100.00;77454.25;4986368;28;19913;-68
2023/04/29 02:46:09;;;;;;;;;;;;;;;-142.75;100.00;77446.34;4986994;28;20003;-67
2023/04/29 02:48:37;;;;;;;;;;;;;;;-142.75;100.00;77456.22;4985034;28;20009;-68
2023/04/29 02:51:02;;;;;;;;;;;;;;;-142.75;100.00;77446.34;4991043;28;19913;-68
2023/04/29 02:53:27;;;;;;;;;;;;;;;-142.75;100.00;77460.13;4990096;28;19968;-68
2023/04/29 02:55:52;;;;;;;;;;;;;;;-142.75;100.00;77456.22;4990689;28;19917;-67
2023/04/29 02:58:18;;;;;;;;;;;;;;;-142.75;100.00;77460.13;4990484;28;19914;-68
2023/04/29 03:00:43;;;;;;;;;;;;;;;-142.75;100.00;77471.97;4989605;28;19924;-67
2023/04/29 03:03:08;;;;;;;;;;;;;;;-142.75;100.00;77464.09;4990082;28;19937;-68
2023/04/29 03:05:34;;;;;;;;;;;;;;;-142.75;100.00;77468.03;4990550;28;20345;-67
2023/04/29 03:07:59;;;;;;;;;;;;;;;-142.75;100.00;77466.03;5005190;28;20383;-68
2023/04/29 03:10:24;;;;;;;;;;;;;;;-142.75;100.00;77468.03;4990549;28;19941;-68
2023/04/29 03:12:50;;;;;;;;;;;;;;;-142.75;100.00;77471.97;5003238;28;20278;-68
2023/04/29 03:15:15;;;;;;;;;;;;;;;-142.75;100.00;77470.00;4990187;28;19916;-68
2023/04/29 03:17:41;;;;;;;;;;;;;;;-142.75;100.00;77468.03;4990223;28;19914;-67
2023/04/29 03:20:06;;;;;;;;;;;;;;;-142.75;100.00;77456.22;4989542;28;20505;-69
2023/04/29 03:22:32;;;;;;;;;;;;;;;-142.75;100.00;77464.09;5002987;28;19917;-68
2023/04/29 03:24:57;;;;;;;;;;;;;;;-142.75;100.00;77485.75;4989751;28;19937;-68
2023/04/29 03:27:22;;;;;;;;;;;;;;;-142.75;100.00;77481.81;4990072;28;19992;-68
2023/04/29 03:29:48;;;;;;;;;;;;;;;-142.75;100.00;77473.94;4989693;28;19917;-68
2023/04/29 03:32:13;;;;;;;;;;;;;;;-142.75;100.00;77471.97;4989978;28;20318;-68
2023/04/29 03:34:38;;;;;;;;;;;;;;;-142.75;100.00;77479.84;4989716;28;19910;-67
2023/04/29 03:37:03;;;;;;;;;;;;;;;-142.75;100.00;77475.91;4989956;28;19909;-68
2023/04/29 03:39:31;;;;;;;;;;;;;;;-142.75;100.00;77483.78;4989773;28;19964;-68
2023/04/29 03:41:56;;;;;;;;;;;;;;;-142.75;100.00;77473.94;5002552;28;19913;-68
2023/04/29 03:44:22;;;;;;;;;;;;;;;-142.75;100.00;77479.84;4989834;28;19913;-68
2023/04/29 03:46:47;;;;;;;;;;;;;;;-142.75;100.00;77491.66;4988981;28;20478;-68
2023/04/29 03:49:13;;;;;;;;;;;;;;;-142.75;100.00;77475.91;4990176;28;19916;-68
2023/04/29 03:51:38;;;;;;;;;;;;;;;-142.75;100.00;77483.78;4989618;28;19916;-67
2023/04/29 03:54:04;;;;;;;;;;;;;;;-142.75;100.00;77483.78;4989465;28;20582;-68
2023/04/29 03:56:29;;;;;;;;;;;;;;;-142.75;100.00;77485.75;4985750;28;20024;-68
2023/04/29 03:58:54;;;;;;;;;;;;;;;-142.75;100.00;77493.63;4987575;28;19920;-68
2023/04/29 04:01:20;;;;;;;;;;;;;;;-142.75;100.00;77483.78;4989431;28;19920;-68
2023/04/29 04:03:45;;;;;;;;;;;;;;;-142.75;100.00;77475.91;4988698;28;20450;-68
2023/04/29 04:06:10;;;;;;;;;;;;;;;-142.75;100.00;77475.91;4988685;28;19921;-67
2023/04/29 04:08:36;;;;;;;;;;;;;;;-142.75;100.00;77483.78;4985553;28;19945;-67
2023/04/29 04:11:04;;;;;;;;;;;;;;;-142.75;100.00;77479.84;5002637;28;19956;-68
2023/04/29 04:13:29;;;;;;;;;;;;;;;-142.75;100.00;77489.69;4986683;28;20654;-68
2023/04/29 04:15:55;;;;;;;;;;;;;;;-142.75;100.00;77483.78;4988745;28;19953;-67
2023/04/29 04:18:20;;;;;;;;;;;;;;;-142.75;100.00;77483.78;4989536;28;20390;-68
2023/04/29 04:20:46;;;;;;;;;;;;;;;-142.75;100.00;77487.72;4989367;28;19913;-68
2023/04/29 04:23:11;;;;;;;;;;;;;;;-142.75;100.00;77497.56;4988623;28;19913;-68
2023/04/29 04:25:36;;;;;;;;;;;;;;;-142.75;100.00;77491.66;4988710;28;20263;-67
2023/04/29 04:28:02;;;;;;;;;;;;;;;-142.75;100.00;77483.78;4985564;28;19914;-68
2023/04/29 04:30:27;;;;;;;;;;;;;;;-142.75;100.00;77487.72;4988930;28;19910;-68
2023/04/29 04:32:52;;;;;;;;;;;;;;;-142.75;100.00;77495.59;5002346;28;20012;-68
2023/04/29 04:35:17;;;;;;;;;;;;;;;-142.75;100.00;77499.53;4988649;28;19961;-68
2023/04/29 04:37:43;;;;;;;;;;;;;;;-142.75;100.00;77503.47;4988878;28;19914;-68
2023/04/29 04:40:10;;;;;;;;;;;;;;;-142.75;100.00;77503.47;4988762;28;19910;-68
2023/04/29 04:42:35;;;;;;;;;;;;;;;-142.75;100.00;77499.53;4988569;28;19910;-68
2023/04/29 04:45:00;;;;;;;;;;;;;;;-142.75;100.00;77521.19;4988641;28;19951;-68
2023/04/29 04:47:26;;;;;;;;;;;;;;;-142.75;100.00;77507.41;4994898;28;19913;-68
2023/04/29 04:49:54;;;;;;;;;;;;;;;-142.75;100.00;77515.28;4985662;28;20313;-68
2023/04/29 04:52:20;;;;;;;;;;;;;;;-142.75;100.00;77531.03;4983392;28;19936;-68
2023/04/29 04:54:46;;;;;;;;;;;;;;;-142.75;100.00;77519.22;4988375;28;19917;-68
2023/04/29 04:57:11;;;;;;;;;;;;;;;-142.75;100.00;77515.28;4988172;28;19910;-68
2023/04/29 04:59:36;;;;;;;;;;;;;;;-142.75;100.00;77523.16;4985761;28;19916;-70
2023/04/29 05:02:01;;;;;;;;;;;;;;;-142.75;100.00;77523.16;4988421;28;20016;-68
2023/04/29 05:04:26;;;;;;;;;;;;;;;-142.75;100.00;77519.22;4988097;28;19910;-68
2023/04/29 05:06:52;;;;;;;;;;;;;;;-142.75;100.00;77523.16;4988116;28;19960;-68
2023/04/29 05:09:17;;;;;;;;;;;;;;;-142.75;100.00;77521.19;4987038;28;19952;-68
2023/04/29 05:11:42;;;;;;;;;;;;;;;-142.75;100.00;77531.03;4987819;28;19914;-68
2023/04/29 05:14:07;;;;;;;;;;;;;;;-142.75;100.00;77523.16;5001951;28;20555;-67
2023/04/29 05:16:33;;;;;;;;;;;;;;;-142.75;100.00;77517.25;5002205;28;19921;-68
2023/04/29 05:18:58;;;;;;;;;;;;;;;-142.75;100.00;77515.28;4988578;28;19955;-67
2023/04/29 05:21:23;;;;;;;;;;;;;;;-142.75;100.00;77509.38;4987974;28;19919;-67
2023/04/29 05:23:48;;;;;;;;;;;;;;;-142.75;100.00;77517.25;4987690;28;19916;-68
2023/04/29 05:26:14;;;;;;;;;;;;;;;-142.75;100.00;77507.41;4988139;28;20397;-68
2023/04/29 05:28:39;;;;;;;;;;;;;;;-142.75;100.00;77525.13;5001128;28;19921;-67
2023/04/29 05:31:04;;;;;;;;;;;;;;;-142.75;100.00;77509.38;4987438;28;19913;-68
2023/04/29 05:33:30;;;;;;;;;;;;;;;-142.75;100.00;77509.38;4987667;28;19910;-68
2023/04/29 05:35:55;;;;;;;;;;;;;;;-142.75;100.00;77507.41;4987786;28;20645;-68
2023/04/29 05:38:20;;;;;;;;;;;;;;;-142.75;100.00;77521.19;4987818;28;20329;-68
2023/04/29 05:40:48;;;;;;;;;;;;;;;-142.75;100.00;77515.28;4987095;28;19913;-68
2023/04/29 05:43:14;;;;;;;;;;;;;;;-142.75;100.00;77511.34;4987239;28;19922;-68
2023/04/29 05:45:39;;;;;;;;;;;;;;;-142.75;100.00;77503.47;4987423;28;19916;-68
2023/04/29 05:48:04;;;;;;;;;;;;;;;-142.75;100.00;77511.34;4987238;28;19917;-68
2023/04/29 05:50:29;;;;;;;;;;;;;;;-142.75;100.00;77509.38;4987612;28;19913;-67
2023/04/29 05:52:55;;;;;;;;;;;;;;;-142.75;100.00;77523.16;4987000;28;19917;-68
2023/04/29 05:55:20;;;;;;;;;;;;;;;-142.75;100.00;77519.22;4998233;28;19909;-67
2023/04/29 05:57:46;;;;;;;;;;;;;;;-142.75;100.00;77513.31;4987598;28;20133;-67
2023/04/29 06:00:11;;;;;;;;;;;;;;;-142.75;100.00;77511.34;4984434;28;19953;-67
2023/04/29 06:02:38;;;;;;;;;;;;;;;-142.75;100.00;77525.13;4987996;28;20278;-67
2023/04/29 06:05:04;;;;;;;;;;;;;;;-142.75;100.00;77511.34;4987394;28;20012;-67
2023/04/29 06:07:29;;;;;;;;;;;;;;;-142.75;100.00;77503.47;4987193;28;20072;-67
2023/04/29 06:09:54;;;;;;;;;;;;;;;-142.75;100.00;77517.25;4987089;28;19910;-68
2023/04/29 06:12:20;;;;;;;;;;;;;;;-142.75;100.00;77511.34;4983937;28;19910;-67
2023/04/29 06:14:45;;;;;;;;;;;;;;;-142.75;100.00;77511.34;4987468;28;19921;-68
2023/04/29 06:17:11;;;;;;;;;;;;;;;-142.75;100.00;77511.34;4987855;28;20387;-67
2023/04/29 06:19:37;;;;;;;;;;;;;;;-142.75;100.00;77519.22;4987788;28;19909;-67
2023/04/29 06:22:02;;;;;;;;;;;;;;;-142.75;100.00;77515.28;4995490;28;20395;-67
2023/04/29 06:24:27;;;;;;;;;;;;;;;-142.75;100.00;77538.91;4991392;28;19910;-68
2023/04/29 06:26:53;;;;;;;;;;;;;;;-142.75;100.00;77536.94;4992060;28;20355;-68
2023/04/29 06:29:18;;;;;;;;;;;;;;;-142.75;100.00;77515.28;4989163;28;19917;-68
2023/04/29 06:31:43;;;;;;;;;;;;;;;-142.75;100.00;77513.31;4988818;28;19920;-69
2023/04/29 06:34:08;;;;;;;;;;;;;;;-142.75;100.00;77515.28;4991436;28;19909;-66
2023/04/29 06:36:34;;;;;;;;;;;;;;;-142.75;100.00;77515.28;4991848;28;20351;-66
2023/04/29 06:38:59;;;;;;;;;;;;;;;-142.75;100.00;77517.25;4991635;28;19913;-66
2023/04/29 06:41:24;;;;;;;;;;;;;;;-142.75;100.00;77534.97;4991023;28;19917;-67
2023/04/29 06:43:50;;;;;;;;;;;;;;;-142.75;100.00;77515.28;4991697;28;21762;-67
2023/04/29 06:46:16;;;;;;;;;;;;;;;-142.75;100.00;77507.41;4989628;28;19992;-66
2023/04/29 06:48:41;;;;;;;;;;;;;;;-142.75;100.00;77497.56;4989853;28;20358;-66
2023/04/29 06:51:07;;;;;;;;;;;;;;;-142.75;100.00;77505.44;4990780;28;20382;-66
2023/04/29 06:53:32;;;;;;;;;;;;;;;-142.75;100.00;77511.34;5000896;28;19913;-67
2023/04/29 06:55:57;;;;;;;;;;;;;;;-142.75;100.00;77523.16;4990808;28;20371;-67
2023/04/29 06:58:22;;;;;;;;;;;;;;;-142.75;100.00;77511.34;4990822;28;19909;-67
2023/04/29 07:00:49;;;;;;;;;;;;;;;-142.75;100.00;77491.66;4990501;28;19941;-66
2023/04/29 07:03:15;;;;;;;;;;;;;;;-142.75;100.00;77491.66;4987880;28;20004;-66
2023/04/29 07:05:44;;;;;;;;;;;;;;;-142.75;100.00;77471.97;4988485;28;19992;-66
2023/04/29 07:08:10;;;;;;;;;;;;;;;-142.75;100.00;77456.22;4989502;28;20410;-66
2023/04/29 07:10:35;;;;;;;;;;;;;;;-142.75;100.00;77471.97;4990384;28;19910;-65
2023/04/29 07:13:00;;;;;;;;;;;;;;;-142.75;100.00;77487.72;4997184;28;20535;-66
2023/04/29 07:15:26;;;;;;;;;;;;;;;-142.75;100.00;77460.13;4989797;28;19914;-66
2023/04/29 07:17:51;;;;;;;;;;;;;;;-142.75;100.00;77440.44;4989518;28;19920;-66
2023/04/29 07:20:17;;;;;;;;;;;;;;;-142.75;100.00;77444.38;4989585;28;19964;-66
2023/04/29 07:22:42;;;;;;;;;;;;;;;-142.75;100.00;77491.66;4987633;28;19923;-66
2023/04/29 07:25:07;;;;;;;;;;;;;;;-142.75;100.00;77456.22;4988777;28;20713;-67
2023/04/29 07:27:33;;;;;;;;;;;;;;;-142.75;100.00;77452.25;4995269;28;20374;-67
2023/04/29 07:30:01;;;;;;;;;;;;;;;-142.75;100.00;77416.81;4989197;28;19940;-67
2023/04/29 07:32:27;;;;;;;;;;;;;;;-142.75;100.00;77353.81;4988163;28;19921;-66
2023/04/29 07:34:52;;;;;;;;;;;;;;;-142.75;100.00;77326.25;4985680;28;19968;-66
2023/04/29 07:37:17;;;;;;;;;;;;;;;-142.75;100.00;77332.16;5001294;28;19914;-66
2023/04/29 07:39:43;;;;;;;;;;;;;;;-142.75;100.00;77308.53;4989616;28;19914;-66
2023/04/29 07:42:08;;;;;;;;;;;;;;;-142.75;100.00;77288.84;4987119;28;19957;-66
2023/04/29 07:44:36;;;;;;;;;;;;;;;-142.75;100.00;77310.50;4988418;28;20354;-66
2023/04/29 07:47:01;;;;;;;;;;;;;;;-142.75;100.00;77282.94;4987665;28;19914;-66
2023/04/29 07:49:27;;;;;;;;;;;;;;;-142.75;100.00;77267.19;4986972;28;19944;-66
2023/04/29 07:51:52;;;;;;;;;;;;;;;-142.75;100.00;77174.66;4988285;28;19991;-66
2023/04/29 07:54:18;;;;;;;;;;;;;;;-142.75;100.00;77184.50;4987865;28;20054;-66
2023/04/29 07:56:43;;;;;;;;;;;;;;;-142.75;100.00;77192.38;4985351;28;20371;-65
2023/04/29 07:59:08;;;;;;;;;;;;;;;-142.75;100.00;77182.53;4989442;28;19971;-64
2023/04/29 08:01:34;;;;;;;;;;;;;;;-142.75;100.00;77156.94;5003525;28;20383;-64
2023/04/29 08:03:59;;;;;;;;;;;;;;;-142.75;100.00;77147.09;4988518;28;20402;-66
2023/04/29 08:06:24;;;;;;;;;;;;;;;-142.75;100.00;77117.56;4984914;28;19950;-64
2023/04/29 08:08:50;;;;;;;;;;;;;;;-142.75;100.00;77123.47;4984735;28;19976;-67
2023/04/29 08:11:19;;;;;;;;;;;;;;;-142.75;100.00;77137.25;4992775;28;20326;-67
2023/04/29 08:13:44;;;;;;;;;;;;;;;-142.75;100.00;77178.59;4987564;28;19914;-65
2023/04/29 08:16:10;;;;;;;;;;;;;;;-142.75;100.00;77194.34;5000842;28;19913;-66
2023/04/29 08:18:35;;;;;;;;;;;;;;;-142.75;100.00;77184.50;4987561;28;19996;-66
2023/04/29 08:21:01;;;;;;;;;;;;;;;-142.75;100.00;77200.25;4990670;28;20099;-66
2023/04/29 08:23:26;;;;;;;;;;;;;;;-142.75;100.00;77156.94;4989050;28;19950;-66
2023/04/29 08:25:52;;;;;;;;;;;;;;;-142.75;100.00;77125.44;4986219;28;19952;-66
2023/04/29 08:28:18;;;;;;;;;;;;;;;-142.75;100.00;77123.47;4987140;28;19913;-66
2023/04/29 08:30:43;;;;;;;;;;;;;;;-142.75;100.00;77145.13;4986284;28;19913;-66
2023/04/29 08:33:08;;;;;;;;;;;;;;;-142.75;100.00;77184.50;4988431;28;19918;-66
2023/04/29 08:35:36;;;;;;;;;;;;;;;-142.75;100.00;77121.50;4985635;28;19968;-67
2023/04/29 08:38:01;;;;;;;;;;;;;;;-142.75;100.00;77064.41;4987891;28;19913;-67
2023/04/29 08:40:27;;;;;;;;;;;;;;;-142.75;100.00;77109.69;4988890;28;20633;-66
2023/04/29 08:42:53;;;;;;;;;;;;;;;-142.75;100.00;77105.75;4988444;28;20063;-68
2023/04/29 08:45:19;;;;;;;;;;;;;;;-142.75;100.00;77149.06;4986729;28;20379;-66
2023/04/29 08:47:44;;;;;;;;;;;;;;;-142.75;100.00;77198.28;4988256;28;19932;-67
2023/04/29 08:50:09;;;;;;;;;;;;;;;-142.75;100.00;77184.50;4988603;28;19917;-66
2023/04/29 08:52:35;;;;;;;;;;;;;;;-142.75;100.00;77166.78;4987311;28;20322;-66
2023/04/29 08:55:01;;;;;;;;;;;;;;;-142.75;100.00;77113.63;4990486;28;19922;-67
2023/04/29 08:57:28;;;;;;;;;;;;;;;-142.75;100.00;77064.41;4987783;28;19914;-67
2023/04/29 08:59:53;;;;;;;;;;;;;;;-142.75;100.00;77086.06;4991904;28;19923;-67
2023/04/29 09:02:20;;;;;;;;;;;;;;;-142.75;100.00;77017.16;4986758;28;19922;-67
2023/04/29 09:04:45;;;;;;;;;;;;;;;-142.75;100.00;76979.75;4983620;28;19917;-67
2023/04/29 09:07:11;;;;;;;;;;;;;;;-142.75;100.00;76904.94;4984167;28;19960;-67
2023/04/29 09:09:38;;;;;;;;;;;;;;;-142.75;100.00;76883.28;4985350;28;19914;-67
2023/04/29 09:12:03;;;;;;;;;;;;;;;-142.75;97.39;76853.75;4984948;28;19917;-67
2023/04/29 09:14:32;;;;;;;;;;;;;;;-142.75;94.50;76859.66;4985418;28;19957;-68
2023/04/29 09:16:58;;;;;;;;;;;;;;;-142.75;97.82;76800.63;4986973;28;19932;-65
2023/04/29 09:19:33;;;;;;;;;;;;;;;-142.75;94.68;76830.13;4988354;28;19913;-65
2023/04/29 09:21:59;;;;;;;;;;;;;;;-142.75;94.77;76802.56;4986210;28;20405;-65
2023/04/29 09:24:28;;;;;;;;;;;;;;;-142.75;93.39;76759.28;4974568;28;19914;-65
2023/04/29 09:26:54;;;;;;;;;;;;;;;-142.75;91.93;76757.31;4975279;28;19961;-65
2023/04/29 09:29:19;;;;;;;;;;;;;;;-142.75;88.57;76804.53;4989436;28;19914;-66
2023/04/29 09:31:45;;;;;;;;;;;;;;;-142.75;89.24;76912.81;4988208;28;19918;-65
2023/04/29 09:34:10;;;;;;;;;;;;;;;-142.75;94.12;76926.59;4987127;28;19952;-65
2023/04/29 09:36:46;;;;;;;;;;;;;;;-142.75;93.93;76841.94;4989090;28;19914;-65
2023/04/29 09:39:16;;;;;;;;;;;;;;;-142.75;89.38;76861.63;4983830;28;19913;-65
2023/04/29 09:41:53;;;;;;;;;;;;;;;-142.75;94.18;76861.63;4988020;28;19933;-65
2023/04/29 09:44:21;;;;;;;;;;;;;;;-142.75;94.23;76908.88;4998100;28;19920;-65
2023/04/29 09:46:58;;;;;;;;;;;;;;;-142.75;92.48;76887.22;4981278;28;19920;-65
2023/04/29 09:49:28;;;;;;;;;;;;;;;-142.75;91.91;76814.38;4985333;28;19925;-65
2023/04/29 09:51:53;;;;;;;;;;;;;;;-142.75;91.62;76857.69;4987838;28;20291;-65
2023/04/29 09:54:22;;;;;;;;;;;;;;;-142.75;89.04;76901.00;4986201;28;19929;-65
2023/04/29 09:56:48;;;;;;;;;;;;;;;-142.75;90.72;76944.31;4993792;28;19960;-60
2023/04/29 09:59:13;;;;;;;;;;;;;;;-142.75;93.94;76954.16;4989286;28;19913;-67
2023/04/29 10:01:39;;;;;;;;;;;;;;;-142.75;97.58;76989.59;4987564;28;19925;-65
2023/04/29 10:04:07;;;;;;;;;;;;;;;-142.75;96.98;76924.63;4983690;28;20096;-65
2023/04/29 10:06:33;;;;;;;;;;;;;;;-142.75;97.00;76857.69;4986260;28;19984;-65
2023/04/29 10:08:58;;;;;;;;;;;;;;;-142.75;92.21;76847.84;4987486;28;20029;-65
2023/04/29 10:11:24;;;;;;;;;;;;;;;-142.75;89.99;76906.91;4989551;28;19920;-65
2023/04/29 10:13:51;;;;;;;;;;;;;;;-142.75;95.12;76916.75;4987492;28;19913;-64
2023/04/29 10:16:19;;;;;;;;;;;;;;;-142.75;89.45;76897.06;4986684;28;19921;-64
2023/04/29 10:18:48;;;;;;;;;;;;;;;-142.75;90.61;76824.22;4984739;28;19913;-64
2023/04/29 10:21:13;;;;;;;;;;;;;;;-142.75;89.92;76806.50;4991462;28;19917;-65
2023/04/29 10:23:38;;;;;;;;;;;;;;;-142.75;85.38;76778.97;4982103;28;20342;-65
2023/04/29 10:26:04;;;;;;;;;;;;;;;-142.75;83.18;76767.16;4986549;28;19921;-66
2023/04/29 10:28:31;;;;;;;;;;;;;;;-142.75;87.93;76778.97;5000918;28;19914;-66
2023/04/29 10:30:56;;;;;;;;;;;;;;;-142.75;86.92;76830.13;4987800;28;19913;-66
2023/04/29 10:33:22;;;;;;;;;;;;;;;-142.75;86.91;76845.88;4987253;28;20004;-66
2023/04/29 10:35:48;;;;;;;;;;;;;;;-142.75;86.61;76871.47;4987600;28;19914;-66
2023/04/29 10:38:23;;;;;;;;;;;;;;;-142.75;85.07;76895.09;4985230;28;19983;-66
2023/04/29 10:40:49;;;;;;;;;;;;;;;-142.75;86.38;76914.78;4983940;28;19917;-66
2023/04/29 10:43:15;;;;;;;;;;;;;;;-142.75;85.59;76893.13;4983714;28;19941;-66
2023/04/29 10:45:40;;;;;;;;;;;;;;;-142.75;85.04;76887.22;4987477;28;19917;-66
2023/04/29 10:48:09;;;;;;;;;;;;;;;-142.75;85.96;76924.63;4987804;28;19941;-65
2023/04/29 10:50:41;;;;;;;;;;;;;;;-142.75;90.98;76867.53;4987524;28;19953;-66
2023/04/29 10:53:06;;;;;;;;;;;;;;;-142.75;86.96;76806.50;5000714;28;19913;-66
2023/04/29 10:55:35;;;;;;;;;;;;;;;-142.75;82.75;76822.25;4988003;28;19917;-66
2023/04/29 10:58:02;;;;;;;;;;;;;;;-142.75;81.45;76723.84;4989357;28;19941;-67
2023/04/29 11:00:28;;;;;;;;;;;;;;;-142.75;77.77;76717.94;4987352;28;19956;-67
2023/04/29 11:02:53;;;;;;;;;;;;;;;-142.75;78.52;76652.97;4987366;28;19921;-66
2023/04/29 11:05:29;;;;;;;;;;;;;;;-142.75;77.24;76704.16;4985969;28;19913;-66
2023/04/29 11:08:11;;;;;;;;;;;;;;;-142.75;81.96;76786.84;4987542;28;19914;-66
2023/04/29 11:10:37;;;;;;;;;;;;;;;-142.75;80.33;76861.63;5002817;28;19921;-66
2023/04/29 11:13:21;;;;;;;;;;;;;;;-142.75;83.58;76875.41;4990964;28;19964;-66
2023/04/29 11:15:47;;;;;;;;;;;;;;;-142.75;83.80;76877.38;5004683;28;19913;-66
2023/04/29 11:18:12;;;;;;;;;;;;;;;-142.75;83.05;76893.13;4991083;28;19917;-66
2023/04/29 11:20:56;;;;;;;;;;;;;;;-142.75;79.68;76814.38;4991299;28;19928;-66
2023/04/29 11:23:23;;;;;;;;;;;;;;;-142.75;80.83;76806.50;4990347;28;19913;-66
2023/04/29 11:25:48;;;;;;;;;;;;;;;-142.75;82.39;76822.25;4990720;28;20441;-66
2023/04/29 11:28:14;;;;;;;;;;;;;;;-142.75;78.81;76794.69;4990873;28;19921;-66
2023/04/29 11:30:40;;;;;;;;;;;;;;;-142.75;78.23;76832.09;4990656;28;20055;-67
2023/04/29 11:33:07;;;;;;;;;;;;;;;-142.75;81.57;76871.47;4990562;28;19918;-66
2023/04/29 11:35:32;;;;;;;;;;;;;;;-142.75;81.29;76883.28;4987218;28;19917;-66
2023/04/29 11:37:58;;;;;;;;;;;;;;;-142.75;83.17;76877.38;4990819;28;19920;-66
2023/04/29 11:40:24;;;;;;;;;;;;;;;-142.75;78.95;76830.13;4990282;28;20383;-66
2023/04/29 11:42:50;;;;;;;;;;;;;;;-142.75;76.60;76784.88;4996393;28;19920;-67
2023/04/29 11:45:18;;;;;;;;;;;;;;;-142.75;76.97;76712.03;4992698;28;19921;-67
2023/04/29 11:47:44;;;;;;;;;;;;;;;-142.75;76.87;76656.91;4990658;28;19921;-66
2023/04/29 11:50:10;;;;;;;;;;;;;;;-142.75;74.41;76645.09;5004260;28;19921;-66
2023/04/29 11:52:36;;;;;;;;;;;;;;;-142.75;74.10;76692.34;4987190;28;19936;-66
2023/04/29 11:55:07;;;;;;;;;;;;;;;-142.75;76.46;76749.44;4990114;28;20287;-67
2023/04/29 11:57:32;;;;;;;;;;;;;;;-142.75;75.89;76700.22;4995326;28;20370;-66
2023/04/29 11:59:58;;;;;;;;;;;;;;;-142.75;76.18;76765.19;4995853;28;19956;-66
2023/04/29 12:02:30;;;;;;;;;;;;;;;-142.75;76.12;76782.91;4990112;28;19984;-66
2023/04/29 12:04:56;;;;;;;;;;;;;;;-142.75;74.17;76755.34;4995391;28;19917;-66
2023/04/29 12:07:22;;;;;;;;;;;;;;;-142.75;77.13;76780.94;4996552;28;19913;-66
2023/04/29 12:09:47;;;;;;;;;;;;;;;-142.75;78.58;76759.28;4996408;28;20342;-67
2023/04/29 12:12:13;;;;;;;;;;;;;;;-142.75;76.80;76708.09;4997123;28;20013;-66
2023/04/29 12:14:39;;;;;;;;;;;;;;;-142.75;74.70;76654.94;4989977;28;19960;-66
2023/04/29 12:17:04;;;;;;;;;;;;;;;-142.75;73.49;76645.09;4998103;28;19917;-67